Weather at Silverstone Heliport

Public forecast

Using degrees Celsius for public forecast. Weather courtesy of forecast.io.

Closest aviation weather report (METAR) to Silverstone Heliport

Report is more than 6 hours old.

Closest report is Cranfield Airport, 14.8 nm (27.3 km) E. Retrieved 2021/12/07 18:20 UTC (14 hours ago):

EGTC 071820Z 19012KT CAVOK 06/03 Q0984

Closest aviation forecast (TAF) to Silverstone Heliport

Forecast is more than 12 hours old.

Closest forecast is Coventry Airport, 24.7 nm (45.8 km) NW. Retrieved 2011/10/05 06:39 UTC (10 years ago):

TAF TAF EGBE 050635Z 0506/0518 22011KT 9999 SCT020 BECMG 0506/0509 23020G30KT PROB30 TEMPO 0516/0518 7000 RA BKN012